ADDS METAR Data INFO
IDs: Format: Raw Decoded Include TAF

Data at: 2356 UTC 24 Feb 2018

METAR for:KS52 (Methow Valley State, WA, US)
Text:KS52 242335Z AUTO 15005KT 10SM SCT055 M02/M09 A2995 RMK AO2 T10161090
Temperature: -1.6°C ( 29°F)
Dewpoint: -9.0°C ( 16°F) [RH = 57%]
Pressure (altimeter):29.95 inches Hg (1014.3 mb)
Winds:from the SSE (150 degrees) at 6 MPH (5 knots; 2.6 m/s)
Visibility:10 or more sm (16+ km)
Ceiling:at least 12,000 feet AGL
Clouds: scattered clouds at 5500 feet AGL
QC Flag:automated observation with no human augmentation